New Riegel, Ohio
Current Conditions -  °F | °C
As of 3:53 AM on Sunday 23 Nov 2014 (Local Time) from KFDY Reporting Station
Light Rain Light Rain  
Wind Chill: 43°   Ceiling: 8000
Heat Index: 47°   Visibility: 9mi
Dew Point: 42°   Wind: 9mph
Humidity: 83%   Direction: 210°SSW
Pressure: 29.99"   Gusts: NA
Location:  41.05°N, 83.32°W
Report Text: KFDY 230853Z AUTO 21008KT 9SM -RA OVC080 08/06 A2999 RMK AO2 SLP154 P0002 60004 T00830056 58003
Loading
Personal Weather Stations






























Interactive Weather Map New forecast layout! Learn more

10-Day Weather Forecast

Advertisements
Track Severe Weather on mobile